San Antonio, Texas
Traffic Map
Current Weather Conditions
San Antonio, Texas
Clear
Clear

Feels Like: 3°
Wind Chill: Ceiling: Unl
Heat Index: Visibility: 10mi
Dew Point: -2° Wind: 6mph
Humidity: 63% Direction: 290° (WNW)
Pressure: 30.34in Gusts: 0mph
Raw Report DataKSKF 061258Z AUTO 29005KT 10SM CLR 05/M02 A3034 RMK AO2 SLP275 T00501016 $
Traffic Incident Summary
Active as of:
Severity:
Category:
InformationThere was an issue retrieving the traffic information for this location. Please try a different location or try again shortly.
Advertisements
Track Severe Weather on mobile